Time;durP1;ratioP1;P1;durP2;ratioP2;P2;SDS_P1;SDS_P2;PMS_P1;PMS_P2;Temp;Humidity;BMP_temperature;BMP_pressure;BME280_temperature;BME280_humidity;BME280_pressure;Samples;Min_cycle;Max_cycle;Signal;HPM_P1;HPM_P2
2022/08/14 00:02:15;;;;;;;2.90;2.70;;;21.30;83.80;;;;;;5035417;28;20206;-69
2022/08/14 00:04:41;;;;;;;2.77;2.57;;;21.30;83.70;;;;;;5035558;28;20437;-70
2022/08/14 00:07:08;;;;;;;3.80;3.40;;;21.20;84.30;;;;;;5034863;28;20426;-69
2022/08/14 00:09:34;;;;;;;3.17;2.97;;;21.00;84.20;;;;;;5035224;28;20414;-69
2022/08/14 00:12:00;;;;;;;5.97;3.50;;;21.00;85.00;;;;;;5033613;28;20854;-69
2022/08/14 00:14:26;;;;;;;3.03;2.83;;;20.90;85.70;;;;;;5035379;28;20448;-69
2022/08/14 00:16:53;;;;;;;3.53;3.23;;;20.80;86.00;;;;;;5034823;28;20286;-70
2022/08/14 00:19:19;;;;;;;3.30;3.00;;;20.70;86.30;;;;;;5034355;28;20472;-70
2022/08/14 00:21:44;;;;;;;3.10;2.80;;;20.80;86.80;;;;;;5034899;28;20406;-69
2022/08/14 00:24:10;;;;;;;3.37;3.07;;;20.80;86.40;;;;;;5034764;28;20255;-68
2022/08/14 00:26:35;;;;;;;4.57;2.93;;;20.70;86.40;;;;;;5034065;28;20687;-70
2022/08/14 00:29:01;;;;;;;3.50;2.77;;;20.70;86.90;;;;;;5034925;28;20231;-70
2022/08/14 00:31:27;;;;;;;3.77;3.17;;;20.60;87.40;;;;;;5034910;28;20171;-70
2022/08/14 00:33:53;;;;;;;2.83;2.63;;;20.60;87.50;;;;;;5034801;28;20172;-69
2022/08/14 00:36:22;;;;;;;2.80;2.60;;;20.60;88.30;;;;;;5034400;28;20480;-70
2022/08/14 00:38:48;;;;;;;3.57;3.37;;;20.60;88.90;;;;;;5034653;28;20172;-70
2022/08/14 00:41:13;;;;;;;3.33;3.03;;;20.70;88.90;;;;;;5034030;28;20837;-69
2022/08/14 00:43:39;;;;;;;4.03;3.03;;;20.70;88.70;;;;;;5034289;28;20167;-70
2022/08/14 00:46:10;;;;;;;3.50;3.30;;;20.70;89.20;;;;;;5034286;28;20191;-70
2022/08/14 00:48:36;;;;;;;3.63;3.10;;;20.50;89.00;;;;;;5034534;28;20527;-70
2022/08/14 00:51:07;;;;;;;3.00;2.80;;;20.40;89.20;;;;;;5034345;28;20411;-70
2022/08/14 00:53:35;;;;;;;3.03;2.83;;;20.50;89.50;;;;;;5033281;28;20449;-69
2022/08/14 00:56:02;;;;;;;3.13;2.90;;;20.60;89.60;;;;;;5033880;28;20458;-70
2022/08/14 00:58:31;;;;;;;2.80;2.60;;;20.60;89.80;;;;;;5033643;28;20456;-70
2022/08/14 01:01:08;;;;;;;3.30;3.00;;;20.60;90.10;;;;;;5034293;28;20753;-70
2022/08/14 01:03:36;;;;;;;3.30;2.97;;;20.40;90.20;;;;;;5034462;28;20468;-70
2022/08/14 01:06:02;;;;;;;3.70;3.07;;;20.30;90.70;;;;;;5034120;28;20438;-70
2022/08/14 01:08:30;;;;;;;3.63;3.40;;;20.30;90.90;;;;;;5034391;28;20475;-70
2022/08/14 01:10:56;;;;;;;3.27;2.97;;;20.20;91.10;;;;;;5034060;28;20422;-70
2022/08/14 01:13:26;;;;;;;3.27;2.97;;;20.10;91.40;;;;;;5032721;28;20450;-70
2022/08/14 01:15:54;;;;;;;4.97;3.43;;;20.10;91.80;;;;;;5033864;28;20489;-70
2022/08/14 01:21:10;;;;;;;3.43;3.13;;;20.00;92.10;;;;;;5034314;28;20390;-70
2022/08/14 01:23:39;;;;;;;3.20;2.80;;;20.00;92.40;;;;;;5034066;28;20394;-69
2022/08/14 01:26:06;;;;;;;2.80;2.60;;;20.00;92.70;;;;;;5033657;28;20426;-68
2022/08/14 01:28:36;;;;;;;3.50;3.20;;;20.00;92.60;;;;;;5033360;28;20761;-70
2022/08/14 01:31:16;;;;;;;3.40;3.10;;;19.90;92.60;;;;;;5034399;28;20533;-71
2022/08/14 01:33:46;;;;;;;2.90;2.67;;;20.00;92.70;;;;;;5034455;28;20809;-70
2022/08/14 01:36:15;;;;;;;3.50;3.20;;;20.10;92.60;;;;;;5034042;28;20433;-69
2022/08/14 01:38:44;;;;;;;3.80;3.50;;;20.10;92.70;;;;;;5034017;28;20402;-70
2022/08/14 01:41:13;;;;;;;3.00;2.80;;;20.20;92.70;;;;;;5035365;28;20406;-69
2022/08/14 01:43:47;;;;;;;4.57;2.93;;;20.20;92.60;;;;;;5033834;28;20403;-70
2022/08/14 01:46:17;;;;;;;4.33;3.03;;;20.20;92.60;;;;;;5035362;28;20425;-70
2022/08/14 01:48:43;;;;;;;3.03;2.83;;;20.00;93.00;;;;;;5033788;28;20405;-70
2022/08/14 01:51:11;;;;;;;2.90;2.70;;;19.80;93.80;;;;;;5035482;28;20437;-70
2022/08/14 01:53:40;;;;;;;3.30;3.00;;;19.60;94.30;;;;;;5034611;28;20811;-69
2022/08/14 01:56:06;;;;;;;4.53;3.30;;;19.60;94.90;;;;;;5033378;28;20461;-69
2022/08/14 01:58:32;;;;;;;3.20;3.00;;;19.60;94.80;;;;;;5033330;28;20489;-69
2022/08/14 02:00:57;;;;;;;3.87;3.47;;;19.50;95.20;;;;;;5033477;28;20434;-70
2022/08/14 02:03:27;;;;;;;2.70;2.50;;;19.40;95.40;;;;;;5033611;28;20175;-69
2022/08/14 02:05:58;;;;;;;4.13;3.50;;;19.40;95.90;;;;;;5033203;28;20195;-69
2022/08/14 02:08:28;;;;;;;4.50;3.43;;;19.40;96.10;;;;;;5033462;28;20875;-69
2022/08/14 02:11:15;;;;;;;3.73;3.43;;;19.40;95.90;;;;;;5033597;28;20382;-69
2022/08/14 02:13:42;;;;;;;3.30;3.00;;;19.50;95.60;;;;;;5030707;28;20899;-69
2022/08/14 02:16:09;;;;;;;3.47;3.17;;;19.50;95.70;;;;;;5033089;28;20460;-70
2022/08/14 02:18:35;;;;;;;3.10;2.90;;;19.60;95.70;;;;;;5033533;28;20902;-68
2022/08/14 02:21:03;;;;;;;3.23;3.03;;;19.60;96.00;;;;;;5033025;28;20410;-69
2022/08/14 02:23:29;;;;;;;3.40;3.10;;;19.70;96.10;;;;;;5033120;28;20250;-69
2022/08/14 02:25:55;;;;;;;3.13;2.93;;;19.70;95.90;;;;;;5033094;28;20426;-69
2022/08/14 02:28:22;;;;;;;3.90;3.20;;;19.40;96.60;;;;;;5032647;28;20433;-70
2022/08/14 02:30:48;;;;;;;3.50;3.20;;;19.30;97.10;;;;;;5033549;28;20410;-69
2022/08/14 02:33:13;;;;;;;3.23;2.90;;;19.30;97.40;;;;;;5032971;28;20450;-69
2022/08/14 02:35:42;;;;;;;3.60;2.90;;;19.20;97.70;;;;;;5032898;28;20234;-70
2022/08/14 02:38:08;;;;;;;3.33;3.03;;;19.30;97.50;;;;;;5031991;28;20176;-70
2022/08/14 02:40:36;;;;;;;3.20;2.90;;;19.30;97.50;;;;;;5032857;28;20410;-70
2022/08/14 02:43:03;;;;;;;3.30;3.00;;;19.30;97.50;;;;;;5032373;28;20902;-69
2022/08/14 02:45:32;;;;;;;3.63;3.33;;;19.10;97.70;;;;;;5033056;28;20453;-69
2022/08/14 02:48:02;;;;;;;3.30;3.00;;;19.20;98.00;;;;;;5032700;28;20928;-69
2022/08/14 02:50:28;;;;;;;3.70;3.20;;;19.20;98.10;;;;;;5032003;28;20410;-70
2022/08/14 02:52:54;;;;;;;3.30;3.10;;;19.30;97.80;;;;;;5032553;28;20491;-69
2022/08/14 02:55:20;;;;;;;3.60;3.30;;;19.40;97.50;;;;;;5033331;28;20414;-70
2022/08/14 02:57:50;;;;;;;3.60;3.30;;;19.50;97.40;;;;;;5032510;28;20202;-69
2022/08/14 03:00:17;;;;;;;3.63;3.37;;;19.50;97.40;;;;;;5033144;28;20608;-70
2022/08/14 03:02:42;;;;;;;4.50;3.50;;;19.50;97.40;;;;;;5033232;28;20418;-70
2022/08/14 03:05:11;;;;;;;3.77;3.47;;;19.40;97.60;;;;;;5033028;28;20791;-69
2022/08/14 03:07:36;;;;;;;3.80;3.50;;;19.30;98.20;;;;;;5032494;28;20538;-70
2022/08/14 03:10:03;;;;;;;3.00;2.80;;;19.10;98.30;;;;;;5032911;28;20402;-70
2022/08/14 03:12:30;;;;;;;3.20;3.00;;;19.10;98.70;;;;;;5031030;28;20195;-70
2022/08/14 03:14:56;;;;;;;3.90;3.50;;;19.10;98.70;;;;;;5031338;28;20564;-69
2022/08/14 03:17:21;;;;;;;3.33;3.13;;;19.00;98.70;;;;;;5035950;28;20510;-69
2022/08/14 03:19:48;;;;;;;3.90;3.33;;;19.00;99.00;;;;;;5036433;28;20175;-70
2022/08/14 03:22:14;;;;;;;3.63;3.33;;;19.00;99.30;;;;;;5036373;28;20175;-70
2022/08/14 03:24:39;;;;;;;3.77;3.47;;;19.10;99.10;;;;;;5035752;28;20456;-70
2022/08/14 03:27:05;;;;;;;3.80;3.27;;;19.10;99.10;;;;;;5035448;28;20191;-69
2022/08/14 03:29:31;;;;;;;3.23;3.03;;;19.00;99.00;;;;;;5035772;28;20258;-69
2022/08/14 03:31:58;;;;;;;3.50;3.20;;;19.00;99.20;;;;;;5036175;28;20548;-69
2022/08/14 03:34:23;;;;;;;4.70;3.50;;;18.90;99.40;;;;;;5034556;28;20171;-69
2022/08/14 03:36:57;;;;;;;3.90;3.60;;;18.80;99.70;;;;;;5035748;28;20422;-69
2022/08/14 03:39:23;;;;;;;3.67;3.37;;;18.80;99.90;;;;;;5036152;28;20144;-69
2022/08/14 03:41:51;;;;;;;3.77;3.50;;;18.80;99.90;;;;;;5035666;28;20410;-70
2022/08/14 03:44:17;;;;;;;3.73;3.43;;;18.90;99.80;;;;;;5035156;28;20438;-70
2022/08/14 03:46:42;;;;;;;3.20;3.00;;;18.80;99.90;;;;;;5035626;28;20860;-70
2022/08/14 03:49:08;;;;;;;3.57;3.30;;;18.80;99.90;;;;;;5038160;28;20171;-69
2022/08/14 03:51:36;;;;;;;4.73;3.67;;;18.90;99.90;;;;;;5034642;28;20176;-70
2022/08/14 03:54:07;;;;;;;3.47;3.17;;;18.90;99.80;;;;;;5035389;28;20671;-69
2022/08/14 03:56:35;;;;;;;3.83;3.23;;;18.90;99.80;;;;;;5035926;28;20433;-70
2022/08/14 03:59:04;;;;;;;3.67;3.27;;;18.90;99.80;;;;;;5035074;28;20501;-69
2022/08/14 04:01:29;;;;;;;3.60;3.40;;;18.90;99.70;;;;;;5035308;28;21017;-69
2022/08/14 04:04:01;;;;;;;4.20;3.73;;;18.70;99.90;;;;;;5035948;28;20402;-70
2022/08/14 04:06:27;;;;;;;3.80;3.50;;;18.60;99.90;;;;;;5035654;28;20175;-69
2022/08/14 04:08:53;;;;;;;3.50;3.20;;;18.40;99.90;;;;;;5035383;28;20398;-70
2022/08/14 04:11:19;;;;;;;3.30;3.10;;;18.40;99.90;;;;;;5035578;28;20409;-69
2022/08/14 04:13:45;;;;;;;3.40;3.10;;;18.40;99.90;;;;;;5033446;28;20199;-69
2022/08/14 04:16:14;;;;;;;3.43;3.13;;;18.60;99.90;;;;;;5034871;28;20980;-69
2022/08/14 04:18:42;;;;;;;3.30;3.10;;;18.50;99.90;;;;;;5035594;28;20164;-69
2022/08/14 04:21:09;;;;;;;5.63;3.50;;;18.40;99.90;;;;;;5033316;28;20480;-69
2022/08/14 04:23:35;;;;;;;3.93;3.63;;;18.40;99.90;;;;;;5034699;28;20410;-70
2022/08/14 04:26:03;;;;;;;3.40;3.10;;;18.40;99.90;;;;;;5034582;28;20967;-69
2022/08/14 04:28:30;;;;;;;3.57;3.27;;;18.50;99.90;;;;;;5034298;28;20406;-69
2022/08/14 04:30:55;;;;;;;3.50;3.30;;;18.50;99.90;;;;;;5035004;28;20766;-70
2022/08/14 04:33:23;;;;;;;3.60;3.23;;;18.40;99.90;;;;;;5034638;28;20449;-69
2022/08/14 04:35:50;;;;;;;3.17;2.97;;;18.50;99.90;;;;;;5035132;28;20703;-69
2022/08/14 04:43:44;;;;;;;9.20;3.83;;;18.50;99.90;;;;;;5034339;28;20413;-68
2022/08/14 04:46:16;;;;;;;3.27;3.07;;;18.50;99.90;;;;;;5034224;28;20430;-68
2022/08/14 04:48:41;;;;;;;3.70;3.40;;;18.50;99.90;;;;;;5034802;28;20486;-69
2022/08/14 04:51:09;;;;;;;3.23;3.03;;;18.60;99.90;;;;;;5034319;28;20409;-69
2022/08/14 04:53:37;;;;;;;3.77;3.47;;;18.70;99.90;;;;;;5034110;28;20202;-69
2022/08/14 04:56:04;;;;;;;3.97;3.63;;;18.70;99.90;;;;;;5033987;28;20468;-68
2022/08/14 04:58:32;;;;;;;5.00;3.47;;;18.80;99.90;;;;;;5033729;28;20420;-68
2022/08/14 05:00:58;;;;;;;3.80;3.13;;;18.90;99.90;;;;;;5034068;28;20505;-68
2022/08/14 05:03:27;;;;;;;4.07;3.77;;;19.00;99.90;;;;;;5034076;28;20914;-69
2022/08/14 05:05:58;;;;;;;4.20;3.80;;;19.10;99.90;;;;;;5034480;28;20939;-68
2022/08/14 05:08:24;;;;;;;3.37;3.17;;;19.00;99.90;;;;;;5035001;28;20875;-68
2022/08/14 05:10:54;;;;;;;5.20;3.60;;;19.00;99.90;;;;;;5032992;28;20778;-68
2022/08/14 05:13:25;;;;;;;3.33;3.13;;;19.00;99.90;;;;;;5032958;28;20457;-70
2022/08/14 05:15:52;;;;;;;3.43;3.23;;;19.00;99.90;;;;;;5033244;28;20898;-69
2022/08/14 05:18:23;;;;;;;3.63;3.30;;;19.10;99.90;;;;;;5057800;23;20496;-67
2022/08/14 05:20:51;;;;;;;4.00;3.70;;;19.20;99.90;;;;;;5033204;28;20410;-68
2022/08/14 05:23:20;;;;;;;3.57;3.27;;;19.30;99.90;;;;;;5032930;28;20409;-67
2022/08/14 05:25:47;;;;;;;4.50;3.20;;;19.30;99.90;;;;;;5033550;28;20409;-67
2022/08/14 05:28:19;;;;;;;3.33;3.13;;;19.50;99.90;;;;;;5049060;28;20456;-67
2022/08/14 05:30:49;;;;;;;3.67;3.37;;;19.50;99.90;;;;;;5033613;28;20891;-67
2022/08/14 05:33:19;;;;;;;3.70;3.40;;;19.60;99.90;;;;;;5033835;28;20499;-67
2022/08/14 05:35:46;;;;;;;3.53;3.30;;;19.50;99.90;;;;;;5033751;28;20793;-68
2022/08/14 05:38:15;;;;;;;6.43;3.80;;;19.60;99.90;;;;;;5032429;28;20461;-68
2022/08/14 05:40:45;;;;;;;4.10;3.80;;;19.70;99.90;;;;;;5033630;28;20767;-68
2022/08/14 05:43:10;;;;;;;4.50;4.10;;;19.90;99.90;;;;;;5031894;28;20418;-68
2022/08/14 05:45:36;;;;;;;4.90;3.80;;;20.00;99.90;;;;;;5033567;28;20415;-68
2022/08/14 05:48:03;;;;;;;3.73;3.43;;;19.90;99.90;;;;;;5033770;28;20191;-68
2022/08/14 05:50:29;;;;;;;4.27;3.87;;;19.80;99.90;;;;;;5033175;28;20450;-68
2022/08/14 05:52:55;;;;;;;3.70;3.40;;;19.90;99.90;;;;;;5016898;28;20430;-68
2022/08/14 05:55:21;;;;;;;4.10;3.80;;;20.10;99.90;;;;;;5017070;28;20938;-68
2022/08/14 05:58:03;;;;;;;4.00;3.60;;;20.20;99.80;;;;;;5033115;28;20456;-68
2022/08/14 06:00:35;;;;;;;3.57;3.37;;;20.30;99.50;;;;;;5033552;28;20477;-68
2022/08/14 06:03:02;;;;;;;4.00;3.60;;;20.50;99.50;;;;;;5033487;28;20395;-68
2022/08/14 06:05:28;;;;;;;4.53;4.13;;;20.60;99.50;;;;;;5033652;28;20401;-68
2022/08/14 06:07:54;;;;;;;3.97;3.60;;;20.70;99.30;;;;;;5033043;28;20422;-68
2022/08/14 06:10:20;;;;;;;3.50;3.20;;;20.80;99.20;;;;;;5032939;28;20429;-68
2022/08/14 06:12:45;;;;;;;3.70;3.40;;;20.90;98.70;;;;;;5031523;28;20398;-66
2022/08/14 06:15:11;;;;;;;3.97;3.67;;;21.00;98.50;;;;;;5032933;28;20168;-68
2022/08/14 06:17:51;;;;;;;4.93;3.87;;;20.90;97.80;;;;;;5032726;28;20222;-68
2022/08/14 06:20:17;;;;;;;3.90;3.60;;;20.90;97.00;;;;;;5033034;28;20166;-67
2022/08/14 06:22:44;;;;;;;4.23;3.93;;;21.00;97.00;;;;;;5033173;28;20402;-68
2022/08/14 06:25:11;;;;;;;4.03;3.63;;;21.10;96.90;;;;;;5033120;28;20413;-68
2022/08/14 06:27:43;;;;;;;3.73;3.43;;;21.20;96.80;;;;;;5032554;28;20425;-68
2022/08/14 06:30:12;;;;;;;3.27;3.03;;;21.40;96.30;;;;;;5033127;28;20469;-68
2022/08/14 06:32:38;;;;;;;4.40;4.00;;;21.60;96.60;;;;;;5032791;28;20532;-68
2022/08/14 06:35:06;;;;;;;3.63;3.43;;;21.70;96.30;;;;;;5048125;28;20480;-68
2022/08/14 06:37:39;;;;;;;3.67;3.37;;;21.80;96.60;;;;;;5032711;28;20472;-67
2022/08/14 06:40:07;;;;;;;3.17;2.97;;;22.00;96.60;;;;;;5032723;28;20891;-68
2022/08/14 06:42:33;;;;;;;3.70;3.43;;;22.20;96.50;;;;;;5030993;28;20430;-68
2022/08/14 06:45:00;;;;;;;3.40;3.10;;;22.30;96.40;;;;;;5032687;28;20502;-68
2022/08/14 06:47:26;;;;;;;3.60;3.30;;;22.40;96.10;;;;;;5032650;28;20426;-69
2022/08/14 06:49:51;;;;;;;3.53;3.33;;;22.50;96.20;;;;;;5032698;28;20818;-68
2022/08/14 06:52:17;;;;;;;4.27;3.87;;;22.60;95.80;;;;;;5036499;28;20191;-68
2022/08/14 06:54:43;;;;;;;4.10;3.80;;;22.70;95.50;;;;;;5036513;28;20251;-68
2022/08/14 06:57:09;;;;;;;3.77;3.40;;;22.90;95.00;;;;;;5036253;28;20297;-69
2022/08/14 06:59:34;;;;;;;3.77;3.30;;;22.60;95.00;;;;;;5035567;28;20495;-68
2022/08/14 07:07:40;;;;;;;4.33;3.93;;;22.40;94.40;;;;;;5036554;28;20420;-68
2022/08/14 07:10:07;;;;;;;4.70;4.30;;;22.60;94.00;;;;;;5051545;28;20483;-68
2022/08/14 07:12:33;;;;;;;5.03;4.47;;;22.50;94.50;;;;;;5035651;28;20437;-69
2022/08/14 07:14:58;;;;;;;4.07;3.67;;;22.30;94.20;;;;;;5005195;28;20841;-68
2022/08/14 07:17:24;;;;;;;5.20;4.40;;;22.40;94.10;;;;;;5016040;28;20199;-68
2022/08/14 07:19:49;;;;;;;4.13;3.70;;;22.60;94.00;;;;;;5016386;28;20664;-68
2022/08/14 07:22:15;;;;;;;3.80;3.50;;;22.70;93.80;;;;;;5016416;28;20204;-68
2022/08/14 07:24:41;;;;;;;3.20;3.00;;;23.00;92.40;;;;;;5016402;28;20222;-68
2022/08/14 07:27:06;;;;;;;3.47;3.27;;;23.20;91.50;;;;;;5016102;28;20732;-68
2022/08/14 07:29:32;;;;;;;3.43;3.13;;;23.40;91.10;;;;;;5034602;28;20206;-68
2022/08/14 07:31:57;;;;;;;3.17;2.87;;;23.70;91.00;;;;;;5036137;28;20216;-68
2022/08/14 07:34:23;;;;;;;2.90;2.63;;;23.70;90.00;;;;;;5036628;28;20163;-68
2022/08/14 07:36:49;;;;;;;3.40;3.10;;;23.70;90.40;;;;;;5035920;28;20237;-68
2022/08/14 07:39:14;;;;;;;3.30;3.00;;;23.60;89.20;;;;;;5035957;28;20518;-68
2022/08/14 07:41:40;;;;;;;3.13;2.83;;;23.60;89.60;;;;;;5036194;28;20185;-68
2022/08/14 07:44:06;;;;;;;3.30;3.03;;;23.50;88.60;;;;;;5033821;28;20230;-68
2022/08/14 07:46:31;;;;;;;2.70;2.50;;;23.60;88.80;;;;;;5035996;28;20520;-68
2022/08/14 07:48:58;;;;;;;3.03;2.83;;;23.80;87.70;;;;;;5035647;28;20176;-69
2022/08/14 07:51:23;;;;;;;2.60;2.40;;;23.90;86.80;;;;;;5035482;28;20645;-68
2022/08/14 07:53:49;;;;;;;3.80;2.70;;;24.00;86.30;;;;;;5030927;28;20443;-68
2022/08/14 07:56:16;;;;;;;2.87;2.67;;;24.00;84.70;;;;;;5015422;28;20218;-70
2022/08/14 07:58:41;;;;;;;5.30;2.93;;;24.00;84.30;;;;;;5022196;28;20191;-68
2022/08/14 08:01:08;;;;;;;3.60;3.07;;;24.20;84.00;;;;;;5035028;28;20399;-69
2022/08/14 08:03:37;;;;;;;3.20;2.80;;;24.30;82.60;;;;;;5023610;28;20282;-70
2022/08/14 08:06:02;;;;;;;3.20;2.90;;;24.60;82.20;;;;;;5004785;28;20415;-69
2022/08/14 08:08:29;;;;;;;4.10;2.60;;;24.80;81.60;;;;;;4995866;28;20495;-69
2022/08/14 08:10:56;;;;;;;3.10;2.80;;;24.90;80.10;;;;;;4995865;28;20609;-69
2022/08/14 08:13:21;;;;;;;3.30;3.03;;;24.80;79.90;;;;;;4995346;28;20450;-69
2022/08/14 08:15:52;;;;;;;3.10;2.90;;;24.80;79.60;;;;;;4995524;28;20780;-69
2022/08/14 08:18:19;;;;;;;2.90;2.70;;;24.90;79.00;;;;;;4995359;28;20280;-69
2022/08/14 08:20:49;;;;;;;2.90;2.70;;;25.00;78.20;;;;;;4995709;28;20392;-70
2022/08/14 08:23:17;;;;;;;2.77;2.57;;;25.10;77.90;;;;;;4996031;28;20464;-69
2022/08/14 08:25:47;;;;;;;4.00;2.93;;;25.10;78.30;;;;;;4994062;28;20408;-67
2022/08/14 08:28:15;;;;;;;3.10;2.63;;;25.20;77.00;;;;;;5002986;28;20965;-68
2022/08/14 08:30:53;;;;;;;2.90;2.70;;;25.40;76.70;;;;;;5034703;28;20409;-68
2022/08/14 08:33:20;;;;;;;4.40;3.20;;;25.50;76.00;;;;;;5034781;28;20437;-68
2022/08/14 08:35:47;;;;;;;2.80;2.60;;;25.50;74.40;;;;;;5034535;28;20403;-68
2022/08/14 08:38:19;;;;;;;3.00;2.77;;;25.50;74.60;;;;;;5034490;28;20426;-68
2022/08/14 08:40:50;;;;;;;2.87;2.57;;;25.50;74.10;;;;;;5034567;28;20410;-68
2022/08/14 08:43:27;;;;;;;3.43;2.90;;;25.70;74.00;;;;;;5033023;28;20426;-68
2022/08/14 08:46:11;;;;;;;2.93;2.70;;;25.80;71.80;;;;;;5034590;28;20414;-68
2022/08/14 08:48:46;;;;;;;3.07;2.87;;;25.70;71.90;;;;;;5034528;28;21001;-69
2022/08/14 08:51:32;;;;;;;2.83;2.63;;;25.80;72.10;;;;;;5034275;28;20402;-68
2022/08/14 08:54:01;;;;;;;2.70;2.50;;;26.00;70.40;;;;;;5034430;28;20417;-68
2022/08/14 08:56:43;;;;;;;2.80;2.50;;;26.10;69.50;;;;;;5034278;28;20903;-68
2022/08/14 08:59:25;;;;;;;2.73;2.47;;;26.20;68.20;;;;;;5032341;28;20802;-68
2022/08/14 09:01:58;;;;;;;2.97;2.70;;;26.20;67.70;;;;;;5034319;28;20398;-69
2022/08/14 09:04:25;;;;;;;2.90;2.70;;;26.30;68.60;;;;;;5034260;28;20485;-68
2022/08/14 09:06:51;;;;;;;3.07;2.77;;;26.30;67.30;;;;;;5033854;28;20508;-68
2022/08/14 09:09:21;;;;;;;3.10;2.90;;;26.30;66.90;;;;;;5034133;28;20437;-68
2022/08/14 09:11:48;;;;;;;2.73;2.53;;;26.40;67.60;;;;;;5034236;28;20377;-69
2022/08/14 09:14:14;;;;;;;3.00;2.80;;;26.70;67.00;;;;;;5032777;28;20406;-68
2022/08/14 09:16:40;;;;;;;3.30;2.97;;;26.70;67.90;;;;;;5033811;28;20754;-69
2022/08/14 09:19:06;;;;;;;3.60;3.40;;;26.90;66.80;;;;;;5034002;28;20175;-67
2022/08/14 09:21:33;;;;;;;3.30;3.10;;;26.90;66.50;;;;;;5033970;28;20538;-68
2022/08/14 09:23:59;;;;;;;3.30;3.10;;;27.00;67.30;;;;;;5033835;28;20406;-68
2022/08/14 09:26:25;;;;;;;3.50;3.20;;;27.20;67.70;;;;;;5033772;28;20468;-68
2022/08/14 09:28:51;;;;;;;3.80;3.30;;;27.10;67.00;;;;;;5032892;28;20892;-67
2022/08/14 09:31:17;;;;;;;3.50;3.20;;;27.20;66.90;;;;;;5033494;28;20176;-68
2022/08/14 09:34:02;;;;;;;5.50;3.50;;;27.30;67.20;;;;;;5033533;28;20195;-68
2022/08/14 09:36:45;;;;;;;3.60;3.00;;;27.60;67.60;;;;;;5033389;28;20447;-68
2022/08/14 09:39:53;;;;;;;3.63;3.33;;;27.70;66.00;;;;;;5033704;28;20429;-68
2022/08/14 09:42:46;;;;;;;3.40;3.10;;;27.70;66.30;;;;;;5033173;28;20429;-68
2022/08/14 09:45:33;;;;;;;4.80;3.80;;;28.00;65.40;;;;;;4993692;28;20398;-67
2022/08/14 09:47:59;;;;;;;3.63;3.33;;;27.90;64.00;;;;;;4994092;28;20503;-67
2022/08/14 09:50:32;;;;;;;5.00;3.30;;;27.80;65.00;;;;;;4993888;28;20815;-67
2022/08/14 09:53:03;;;;;;;4.33;3.23;;;27.90;64.20;;;;;;4993837;28;20181;-67
2022/08/14 09:55:32;;;;;;;4.20;3.90;;;28.00;63.30;;;;;;4993858;28;20408;-68
2022/08/14 09:58:15;;;;;;;4.07;3.37;;;28.10;63.10;;;;;;4993827;28;20436;-68
2022/08/14 10:00:45;;;;;;;3.57;3.37;;;28.10;63.80;;;;;;5018105;28;20425;-68
2022/08/14 10:03:11;;;;;;;4.20;3.03;;;28.10;63.30;;;;;;5025497;28;20414;-66
2022/08/14 10:05:38;;;;;;;2.90;2.70;;;28.10;61.80;;;;;;5013697;28;20422;-67
2022/08/14 10:08:17;;;;;;;3.47;3.10;;;28.10;62.60;;;;;;5013360;28;20489;-67
2022/08/14 10:10:42;;;;;;;3.17;2.97;;;28.20;62.40;;;;;;5013577;28;20391;-68
2022/08/14 10:13:22;;;;;;;3.37;3.00;;;28.40;62.00;;;;;;5013018;28;20790;-68
2022/08/14 10:15:51;;;;;;;3.43;3.07;;;28.50;60.90;;;;;;5013367;28;20184;-68
2022/08/14 10:18:20;;;;;;;3.90;3.60;;;28.60;61.10;;;;;;5013002;28;20458;-67
2022/08/14 10:20:59;;;;;;;3.50;3.30;;;28.80;60.90;;;;;;5013013;28;20399;-69
2022/08/14 10:23:28;;;;;;;3.20;3.00;;;28.80;60.50;;;;;;5014387;28;20773;-68
2022/08/14 10:26:04;;;;;;;3.10;2.90;;;28.70;59.60;;;;;;5016345;28;20513;-68
2022/08/14 10:28:43;;;;;;;3.67;3.40;;;28.90;59.90;;;;;;5016630;28;20437;-67
2022/08/14 10:31:30;;;;;;;5.80;3.10;;;28.90;58.80;;;;;;5033017;28;20413;-68
2022/08/14 10:34:19;;;;;;;3.13;2.90;;;29.00;58.40;;;;;;5035901;28;20448;-68
2022/08/14 10:36:48;;;;;;;4.07;3.70;;;29.00;58.00;;;;;;5037531;28;20434;-68
2022/08/14 10:39:20;;;;;;;3.50;3.20;;;29.10;58.00;;;;;;5037002;28;20424;-68
2022/08/14 10:41:46;;;;;;;3.37;3.17;;;29.20;58.50;;;;;;5037253;28;20886;-68
2022/08/14 10:44:20;;;;;;;3.93;3.50;;;29.10;57.90;;;;;;5034584;28;20445;-68
2022/08/14 10:46:52;;;;;;;3.87;3.50;;;29.10;58.00;;;;;;5036749;28;20422;-68
2022/08/14 10:49:24;;;;;;;3.43;3.20;;;29.30;57.70;;;;;;5050283;28;20524;-67
2022/08/14 10:52:07;;;;;;;4.13;3.30;;;29.50;57.10;;;;;;5036532;28;20410;-68
2022/08/14 10:54:43;;;;;;;3.43;2.97;;;29.70;56.40;;;;;;5036799;28;20379;-68
2022/08/14 10:57:23;;;;;;;4.27;3.20;;;29.60;56.60;;;;;;5022260;28;20442;-68
2022/08/14 10:59:55;;;;;;;4.30;3.90;;;30.20;55.10;;;;;;5010693;28;20502;-68
2022/08/14 11:02:28;;;;;;;3.57;3.30;;;31.70;53.20;;;;;;5016689;28;20406;-68
2022/08/14 11:04:59;;;;;;;2.90;2.70;;;32.90;50.60;;;;;;5016752;28;20413;-68
2022/08/14 11:07:26;;;;;;;4.97;3.50;;;33.30;49.50;;;;;;5016353;28;20497;-69
2022/08/14 11:09:56;;;;;;;3.43;2.97;;;33.60;48.60;;;;;;5016625;28;20472;-68
2022/08/14 11:12:37;;;;;;;3.17;2.97;;;33.70;47.60;;;;;;5016235;28;20431;-68
2022/08/14 11:15:03;;;;;;;3.77;3.47;;;34.80;46.00;;;;;;5011567;28;20413;-70
2022/08/14 11:17:35;;;;;;;3.50;3.20;;;34.80;44.30;;;;;;4995113;28;20462;-68
2022/08/14 11:20:03;;;;;;;3.97;3.30;;;34.80;44.80;;;;;;4995790;28;20493;-68
2022/08/14 11:22:30;;;;;;;3.00;2.80;;;34.80;44.10;;;;;;4994742;28;20431;-69
2022/08/14 11:25:05;;;;;;;3.30;3.10;;;34.50;44.10;;;;;;4995360;28;20446;-68
2022/08/14 11:27:32;;;;;;;3.33;2.93;;;34.80;44.00;;;;;;4995933;28;20454;-69
2022/08/14 11:30:07;;;;;;;3.20;2.90;;;35.40;43.10;;;;;;4994978;28;20415;-70
2022/08/14 11:32:34;;;;;;;3.60;3.30;;;35.70;42.60;;;;;;4995561;28;20461;-68
2022/08/14 11:35:02;;;;;;;3.53;3.23;;;35.80;42.30;;;;;;4995283;28;20797;-69
2022/08/14 11:37:28;;;;;;;3.80;3.40;;;36.20;41.50;;;;;;4993372;28;20564;-68
2022/08/14 11:39:54;;;;;;;3.50;3.20;;;36.80;41.30;;;;;;4994298;28;20414;-69
2022/08/14 11:42:25;;;;;;;3.00;2.80;;;37.90;38.30;;;;;;4994882;28;20458;-67
2022/08/14 11:44:52;;;;;;;4.43;3.40;;;36.70;39.50;;;;;;4993782;28;20176;-68
2022/08/14 11:47:18;;;;;;;3.70;3.50;;;35.50;40.50;;;;;;4995186;28;21026;-69
2022/08/14 11:49:48;;;;;;;3.80;3.60;;;35.70;40.90;;;;;;5039369;22;20488;-68
2022/08/14 11:52:18;;;;;;;3.80;3.50;;;35.40;40.90;;;;;;5034775;28;20229;-70
2022/08/14 11:54:45;;;;;;;3.67;3.37;;;35.90;40.80;;;;;;5036362;28;20740;-69
2022/08/14 11:57:15;;;;;;;3.77;3.47;;;36.10;39.80;;;;;;5034751;28;20774;-69
2022/08/14 11:59:41;;;;;;;3.00;2.80;;;36.30;39.90;;;;;;5049500;28;20420;-66
2022/08/14 12:02:15;;;;;;;4.53;3.40;;;37.00;38.60;;;;;;5037550;28;20417;-69
2022/08/14 12:04:52;;;;;;;4.50;2.40;;;38.80;37.00;;;;;;5055348;28;20144;-69
2022/08/14 12:07:18;;;;;;;4.83;2.90;;;39.80;35.30;;;;;;5055358;28;20405;-69
2022/08/14 12:09:45;;;;;;;5.03;3.20;;;38.40;36.00;;;;;;5055194;28;20421;-69
2022/08/14 12:12:32;;;;;;;2.63;2.47;;;38.20;36.00;;;;;;5054970;28;20448;-68
2022/08/14 12:14:59;;;;;;;3.20;2.43;;;38.40;35.30;;;;;;5041903;28;20417;-69
2022/08/14 12:17:27;;;;;;;3.23;3.03;;;38.00;36.20;;;;;;5035148;28;20440;-69
2022/08/14 12:19:57;;;;;;;2.57;2.37;;;38.20;34.70;;;;;;5035010;28;20418;-69
2022/08/14 12:22:34;;;;;;;2.97;2.77;;;38.30;35.40;;;;;;5035307;28;20982;-69
2022/08/14 12:25:00;;;;;;;3.20;3.00;;;37.50;36.10;;;;;;5035341;28;20406;-69
2022/08/14 12:27:41;;;;;;;3.10;2.90;;;37.80;36.80;;;;;;5035298;28;20413;-68
2022/08/14 12:30:07;;;;;;;3.17;2.90;;;39.30;34.70;;;;;;5034499;28;20437;-67
2022/08/14 12:32:45;;;;;;;2.60;2.40;;;39.10;34.50;;;;;;5035172;28;20445;-69
2022/08/14 12:35:13;;;;;;;2.60;2.40;;;38.60;34.40;;;;;;5034054;28;20410;-67
2022/08/14 12:37:49;;;;;;;2.70;2.50;;;38.70;33.70;;;;;;5034796;28;20414;-69
2022/08/14 12:40:17;;;;;;;2.37;2.17;;;38.90;32.80;;;;;;5035266;28;20791;-69
2022/08/14 12:42:43;;;;;;;2.57;2.37;;;39.10;32.60;;;;;;5034059;28;20930;-70
2022/08/14 12:45:13;;;;;;;2.70;2.50;;;38.70;32.80;;;;;;5032123;28;20430;-69
2022/08/14 12:47:42;;;;;;;2.80;2.30;;;39.30;31.20;;;;;;5033951;28;20422;-69
2022/08/14 12:50:11;;;;;;;3.40;2.17;;;40.10;30.80;;;;;;5034368;28;20529;-70
2022/08/14 12:52:42;;;;;;;2.30;2.20;;;40.90;30.00;;;;;;5034809;28;20790;-69
2022/08/14 12:55:10;;;;;;;2.43;2.23;;;40.90;30.30;;;;;;5034582;28;20393;-69
2022/08/14 12:57:38;;;;;;;2.20;2.10;;;41.00;29.70;;;;;;5034070;28;20497;-69
2022/08/14 13:00:06;;;;;;;2.40;2.20;;;41.30;29.30;;;;;;5033768;28;20421;-69
2022/08/14 13:02:37;;;;;;;2.77;2.27;;;42.50;28.40;;;;;;5034457;28;20490;-69
2022/08/14 13:05:03;;;;;;;2.13;2.00;;;42.30;28.50;;;;;;5034388;28;20452;-69
2022/08/14 13:07:29;;;;;;;1.77;1.67;;;40.50;28.70;;;;;;5034132;28;20820;-69
2022/08/14 13:09:55;;;;;;;1.87;1.77;;;41.10;29.20;;;;;;5034258;28;20198;-68
2022/08/14 13:12:28;;;;;;;2.23;2.13;;;39.90;28.80;;;;;;5034140;28;20273;-69